River Falls, WI (54022)

6:49 PM CDT on June 28, 2017 (GMT -0500)
River Falls | | Change Station
Active Advisory: Tornado Watch

Elev 906 ft 44.84 °N, 92.64 °W | Updated 18 seconds ago

Partly Cloudy
Partly Cloudy
73.4 °F
Feels Like 71 °F
N
2.0
Wind Variable Wind from NNE

Today
High -- | Low -- °F
--% Chance of Precip.
Yesterday
High -- | Low -- °F
Precip. -- in
Pressure 29.53 in
Visibility 10.0 miles
Clouds Scattered Clouds 3800 ft
Heat Index 71 °F
Dew Point 70 °F
Humidity 91%
Rainfall 2.20 in
Snow Depth Not available.
5:26 AM 9:00 PM
Waxing Crescent, 29% visible
METAR K21D 282332Z AUTO 28011G17KT 10SM SCT038 25/18 A2953 RMK AO2 LTG DSNT NE AND SE
Pressure 29.53 in
Visibility 10.0 miles
Clouds Scattered Clouds 3800 ft
Heat Index 71 °F
Dew Point 70 °F
Humidity 91%
Rainfall 2.20 in
Snow Depth Not available.
5:26 AM 9:00 PM
Waxing Crescent, 29% visible
METAR K21D 282332Z AUTO 28011G17KT 10SM SCT038 25/18 A2953 RMK AO2 LTG DSNT NE AND SE

Get Your Daily Forecast Email!

Thanks for signing up!

Be on the lookout for a verification email in your inbox.

You'll start receiving severe weather alerts in your inbox..

×

10-Day Weather Forecast

Almanac

Astronomy

Jun. 28, 2017 Rise Set
Actual Time
Civil Twilight
Nautical Twilight
Astronomical Twilight
Moon
Length of Visible Light
Length of Day
Tomorrow will be .
, % of the Moon is Illuminated

Today's Extremes

State Highs State Lows

Community

WunderPhotos

Category 6

Welcome to Category 6. This is the collective home for Weather Underground's featured writeups by Dr. Jeff Masters (right), Bob Henson (left), Chris Burt, and other regular contributors.

Nearby

Air Quality

  Air Quality AQ Index Pollutant
Not available.

Snow Depth

Station Depth Elevation

Earthquake Activity

City Distance Mag. Time & Date
Minimum magnitude displayed is 2.5.

Coastal Water Temperatures

Place Temperature

Stations

Nearby Weather Stations

Station Location Temp. Windchill Dew Point Humidity Wind Precip. Elev Updated Type
                   

Watches & Warnings

Tornado Watch
Issued: 6:41 PM CDT Jun. 28, 2017 – National Weather Service


The National Weather Service has cancelled Tornado Watch 376 for
the following areas

In Wisconsin this cancels 5 counties

In northwest Wisconsin

Barron Polk

In west central Wisconsin

Dunn Pierce St. Croix

This includes the cities of Hudson, Menomonie, Osceola,
Rice Lake, and River Falls.